sensor_id;sensor_type;location;lat;lon;timestamp;pressure;altitude;pressure_sealevel;temperature;humidity
33845;BME280;20145;43.118;25.694;2023-09-18T00:01:05;99981.16;;;18.17;93.01
33845;BME280;20145;43.118;25.694;2023-09-18T00:03:31;99976.03;;;18.14;92.96
33845;BME280;20145;43.118;25.694;2023-09-18T00:05:58;99988.09;;;18.18;93.07
33845;BME280;20145;43.118;25.694;2023-09-18T00:08:24;99977.94;;;18.09;93.55
33845;BME280;20145;43.118;25.694;2023-09-18T00:10:54;99993.38;;;18.16;92.60
33845;BME280;20145;43.118;25.694;2023-09-18T00:13:21;99972.81;;;18.07;92.94
33845;BME280;20145;43.118;25.694;2023-09-18T00:15:48;99960.25;;;17.92;91.13
33845;BME280;20145;43.118;25.694;2023-09-18T00:18:16;99978.16;;;18.02;93.06
33845;BME280;20145;43.118;25.694;2023-09-18T00:20:42;99985.91;;;18.05;93.09
33845;BME280;20145;43.118;25.694;2023-09-18T00:23:09;99987.78;;;18.02;93.22
33845;BME280;20145;43.118;25.694;2023-09-18T00:25:35;99981.78;;;17.98;92.82
33845;BME280;20145;43.118;25.694;2023-09-18T00:28:02;99981.72;;;18.00;93.05
33845;BME280;20145;43.118;25.694;2023-09-18T00:30:28;99962.81;;;17.93;93.34
33845;BME280;20145;43.118;25.694;2023-09-18T00:32:54;99959.31;;;17.93;93.22
33845;BME280;20145;43.118;25.694;2023-09-18T00:35:20;99960.09;;;17.96;92.60
33845;BME280;20145;43.118;25.694;2023-09-18T00:37:47;99973.75;;;18.04;92.30
33845;BME280;20145;43.118;25.694;2023-09-18T00:40:13;99960.03;;;17.98;92.07
33845;BME280;20145;43.118;25.694;2023-09-18T00:42:38;99951.50;;;17.93;92.64
33845;BME280;20145;43.118;25.694;2023-09-18T00:45:05;99953.00;;;18.00;92.11
33845;BME280;20145;43.118;25.694;2023-09-18T00:47:31;99949.47;;;18.01;92.63
33845;BME280;20145;43.118;25.694;2023-09-18T00:49:57;99964.06;;;18.08;93.19
33845;BME280;20145;43.118;25.694;2023-09-18T00:52:23;99964.47;;;17.96;90.51
33845;BME280;20145;43.118;25.694;2023-09-18T00:54:51;99973.41;;;17.89;91.07
33845;BME280;20145;43.118;25.694;2023-09-18T00:57:17;99968.59;;;17.75;92.35
33845;BME280;20145;43.118;25.694;2023-09-18T00:59:45;99926.81;;;17.48;93.56
33845;BME280;20145;43.118;25.694;2023-09-18T01:02:10;99967.88;;;17.70;92.44
33845;BME280;20145;43.118;25.694;2023-09-18T01:04:37;99945.78;;;17.53;93.29
33845;BME280;20145;43.118;25.694;2023-09-18T01:07:04;99947.75;;;17.47;93.28
33845;BME280;20145;43.118;25.694;2023-09-18T01:09:32;99959.03;;;17.47;92.29
33845;BME280;20145;43.118;25.694;2023-09-18T01:12:17;99973.09;;;17.43;92.42
33845;BME280;20145;43.118;25.694;2023-09-18T01:17:12;99944.75;;;17.32;94.78
33845;BME280;20145;43.118;25.694;2023-09-18T01:19:43;99939.16;;;17.15;92.98
33845;BME280;20145;43.118;25.694;2023-09-18T01:22:15;99965.72;;;17.28;93.25
33845;BME280;20145;43.118;25.694;2023-09-18T01:24:44;99969.94;;;17.32;93.73
33845;BME280;20145;43.118;25.694;2023-09-18T01:27:13;99968.34;;;17.28;93.67
33845;BME280;20145;43.118;25.694;2023-09-18T01:29:43;99961.28;;;17.31;93.82
33845;BME280;20145;43.118;25.694;2023-09-18T01:32:08;99951.16;;;17.21;92.07
33845;BME280;20145;43.118;25.694;2023-09-18T01:34:46;99944.47;;;17.12;93.11
33845;BME280;20145;43.118;25.694;2023-09-18T01:37:14;99961.13;;;17.08;91.47
33845;BME280;20145;43.118;25.694;2023-09-18T01:39:41;99964.91;;;16.98;90.93
33845;BME280;20145;43.118;25.694;2023-09-18T01:42:07;99954.16;;;16.79;93.60
33845;BME280;20145;43.118;25.694;2023-09-18T01:44:36;99965.25;;;16.85;93.12
33845;BME280;20145;43.118;25.694;2023-09-18T01:47:09;99966.88;;;16.89;94.49
33845;BME280;20145;43.118;25.694;2023-09-18T01:49:37;99971.03;;;16.97;94.00
33845;BME280;20145;43.118;25.694;2023-09-18T01:52:06;99971.78;;;17.00;93.62
33845;BME280;20145;43.118;25.694;2023-09-18T01:54:33;99970.94;;;17.00;93.04
33845;BME280;20145;43.118;25.694;2023-09-18T01:56:59;99954.31;;;16.71;92.47
33845;BME280;20145;43.118;25.694;2023-09-18T01:59:25;99963.78;;;16.75;93.50
33845;BME280;20145;43.118;25.694;2023-09-18T02:01:51;99973.13;;;16.84;94.98
33845;BME280;20145;43.118;25.694;2023-09-18T02:04:18;99978.31;;;16.84;93.35
33845;BME280;20145;43.118;25.694;2023-09-18T02:06:47;99982.03;;;16.77;92.61
33845;BME280;20145;43.118;25.694;2023-09-18T02:09:13;99970.75;;;16.75;93.46
33845;BME280;20145;43.118;25.694;2023-09-18T02:11:44;99968.16;;;16.73;92.92
33845;BME280;20145;43.118;25.694;2023-09-18T02:14:11;99969.09;;;16.70;93.61
33845;BME280;20145;43.118;25.694;2023-09-18T02:16:38;99976.84;;;16.73;95.22
33845;BME280;20145;43.118;25.694;2023-09-18T02:19:08;99969.41;;;16.60;92.86
33845;BME280;20145;43.118;25.694;2023-09-18T02:21:34;99975.97;;;16.75;95.37
33845;BME280;20145;43.118;25.694;2023-09-18T02:23:59;99972.72;;;16.66;93.02
33845;BME280;20145;43.118;25.694;2023-09-18T02:26:25;99975.44;;;16.62;93.12
33845;BME280;20145;43.118;25.694;2023-09-18T02:28:52;99983.41;;;16.57;94.30
33845;BME280;20145;43.118;25.694;2023-09-18T02:31:19;99977.41;;;16.54;94.12
33845;BME280;20145;43.118;25.694;2023-09-18T02:33:47;99967.16;;;16.47;93.70
33845;BME280;20145;43.118;25.694;2023-09-18T02:36:14;99976.25;;;16.33;92.07
33845;BME280;20145;43.118;25.694;2023-09-18T02:38:39;99979.88;;;16.27;93.41
33845;BME280;20145;43.118;25.694;2023-09-18T02:41:05;99967.13;;;16.16;91.97
33845;BME280;20145;43.118;25.694;2023-09-18T02:43:31;99969.53;;;16.24;93.91
33845;BME280;20145;43.118;25.694;2023-09-18T02:45:56;99994.84;;;16.17;92.35
33845;BME280;20145;43.118;25.694;2023-09-18T02:48:23;99984.63;;;16.10;93.48
33845;BME280;20145;43.118;25.694;2023-09-18T02:50:49;99984.84;;;16.02;94.03
33845;BME280;20145;43.118;25.694;2023-09-18T02:53:23;99990.19;;;15.96;94.44
33845;BME280;20145;43.118;25.694;2023-09-18T02:55:51;99993.66;;;15.96;94.91
33845;BME280;20145;43.118;25.694;2023-09-18T02:58:17;99975.47;;;15.95;96.63
33845;BME280;20145;43.118;25.694;2023-09-18T03:00:47;100005.34;;;16.14;96.30
33845;BME280;20145;43.118;25.694;2023-09-18T03:03:14;100014.63;;;16.24;96.70
33845;BME280;20145;43.118;25.694;2023-09-18T03:05:41;100014.56;;;16.27;95.70
33845;BME280;20145;43.118;25.694;2023-09-18T03:08:07;100015.06;;;16.40;96.01
33845;BME280;20145;43.118;25.694;2023-09-18T03:10:38;100002.78;;;16.45;95.16
33845;BME280;20145;43.118;25.694;2023-09-18T03:13:08;100011.22;;;16.55;94.33
33845;BME280;20145;43.118;25.694;2023-09-18T03:15:35;100004.34;;;16.53;93.44
33845;BME280;20145;43.118;25.694;2023-09-18T03:18:01;100018.13;;;16.56;94.13
33845;BME280;20145;43.118;25.694;2023-09-18T03:20:28;100002.59;;;16.53;93.87
33845;BME280;20145;43.118;25.694;2023-09-18T03:22:58;99999.97;;;16.55;93.79
33845;BME280;20145;43.118;25.694;2023-09-18T03:25:24;100021.47;;;16.61;93.26
33845;BME280;20145;43.118;25.694;2023-09-18T03:27:54;100004.34;;;16.53;93.55
33845;BME280;20145;43.118;25.694;2023-09-18T03:30:21;100016.28;;;16.61;93.53
33845;BME280;20145;43.118;25.694;2023-09-18T03:32:49;100023.19;;;16.62;93.84
33845;BME280;20145;43.118;25.694;2023-09-18T03:35:15;100016.16;;;16.66;93.93
33845;BME280;20145;43.118;25.694;2023-09-18T03:37:47;100009.75;;;16.45;91.75
33845;BME280;20145;43.118;25.694;2023-09-18T03:40:14;100001.94;;;16.45;93.59
33845;BME280;20145;43.118;25.694;2023-09-18T03:42:39;100026.88;;;16.55;94.59
33845;BME280;20145;43.118;25.694;2023-09-18T03:45:06;100000.47;;;16.35;93.82
33845;BME280;20145;43.118;25.694;2023-09-18T03:47:36;100001.34;;;16.35;94.22
33845;BME280;20145;43.118;25.694;2023-09-18T03:50:03;100034.75;;;16.52;93.34
33845;BME280;20145;43.118;25.694;2023-09-18T03:52:29;100035.03;;;16.41;91.43
33845;BME280;20145;43.118;25.694;2023-09-18T03:54:54;100032.47;;;16.40;94.54
33845;BME280;20145;43.118;25.694;2023-09-18T03:57:20;100035.16;;;16.37;94.83
33845;BME280;20145;43.118;25.694;2023-09-18T03:59:46;100025.16;;;16.20;94.08
33845;BME280;20145;43.118;25.694;2023-09-18T04:02:12;100014.91;;;16.14;95.07
33845;BME280;20145;43.118;25.694;2023-09-18T04:04:38;100036.59;;;16.14;94.67
33845;BME280;20145;43.118;25.694;2023-09-18T04:07:08;100044.38;;;16.16;94.04
33845;BME280;20145;43.118;25.694;2023-09-18T04:09:34;100028.03;;;16.09;94.10
33845;BME280;20145;43.118;25.694;2023-09-18T04:12:03;100029.22;;;15.96;92.80
33845;BME280;20145;43.118;25.694;2023-09-18T04:14:31;100042.97;;;16.02;92.85
33845;BME280;20145;43.118;25.694;2023-09-18T04:16:59;100036.31;;;15.89;93.70
33845;BME280;20145;43.118;25.694;2023-09-18T04:19:28;100039.09;;;15.83;93.34
33845;BME280;20145;43.118;25.694;2023-09-18T04:21:54;100015.09;;;15.70;93.23
33845;BME280;20145;43.118;25.694;2023-09-18T04:24:20;100037.31;;;15.83;94.41
33845;BME280;20145;43.118;25.694;2023-09-18T04:26:45;100030.22;;;15.90;95.04
33845;BME280;20145;43.118;25.694;2023-09-18T04:29:11;100039.03;;;16.20;98.16
33845;BME280;20145;43.118;25.694;2023-09-18T04:31:36;100042.97;;;16.37;95.12
33845;BME280;20145;43.118;25.694;2023-09-18T04:34:03;100046.72;;;16.59;95.56
33845;BME280;20145;43.118;25.694;2023-09-18T04:36:29;100023.66;;;16.78;97.19
33845;BME280;20145;43.118;25.694;2023-09-18T04:38:55;100043.00;;;17.01;95.45
33845;BME280;20145;43.118;25.694;2023-09-18T04:41:20;100036.38;;;17.20;92.85
33845;BME280;20145;43.118;25.694;2023-09-18T04:43:46;100047.13;;;17.39;92.06
33845;BME280;20145;43.118;25.694;2023-09-18T04:46:11;100045.09;;;17.49;89.30
33845;BME280;20145;43.118;25.694;2023-09-18T04:48:37;100033.34;;;17.64;90.95
33845;BME280;20145;43.118;25.694;2023-09-18T04:51:03;100047.41;;;17.88;90.43
33845;BME280;20145;43.118;25.694;2023-09-18T04:53:29;100031.44;;;17.97;89.48
33845;BME280;20145;43.118;25.694;2023-09-18T04:55:55;100042.78;;;18.22;89.36
33845;BME280;20145;43.118;25.694;2023-09-18T04:58:21;100053.38;;;18.44;87.42
33845;BME280;20145;43.118;25.694;2023-09-18T05:00:52;100045.22;;;18.54;86.47
33845;BME280;20145;43.118;25.694;2023-09-18T05:03:18;100059.34;;;18.75;86.58
33845;BME280;20145;43.118;25.694;2023-09-18T05:05:43;100046.63;;;18.89;85.37
33845;BME280;20145;43.118;25.694;2023-09-18T05:08:09;100055.00;;;18.99;85.00
33845;BME280;20145;43.118;25.694;2023-09-18T05:10:35;100055.34;;;19.13;84.93
33845;BME280;20145;43.118;25.694;2023-09-18T05:13:02;100054.19;;;19.20;85.01
33845;BME280;20145;43.118;25.694;2023-09-18T05:15:28;100060.06;;;19.27;85.27
33845;BME280;20145;43.118;25.694;2023-09-18T05:17:58;100063.19;;;19.36;84.87
33845;BME280;20145;43.118;25.694;2023-09-18T05:20:26;100052.03;;;19.31;85.28
33845;BME280;20145;43.118;25.694;2023-09-18T05:22:52;100062.06;;;19.44;86.65
33845;BME280;20145;43.118;25.694;2023-09-18T05:25:25;100049.66;;;19.49;85.81
33845;BME280;20145;43.118;25.694;2023-09-18T05:27:52;100069.06;;;19.43;86.14
33845;BME280;20145;43.118;25.694;2023-09-18T05:30:27;100060.31;;;19.43;86.97
33845;BME280;20145;43.118;25.694;2023-09-18T05:32:57;100065.69;;;19.39;86.59
33845;BME280;20145;43.118;25.694;2023-09-18T05:35:29;100054.66;;;19.31;85.45
33845;BME280;20145;43.118;25.694;2023-09-18T05:37:55;100062.94;;;19.43;85.31
33845;BME280;20145;43.118;25.694;2023-09-18T05:40:22;100062.91;;;19.44;85.57
33845;BME280;20145;43.118;25.694;2023-09-18T05:42:48;100062.34;;;19.36;84.96
33845;BME280;20145;43.118;25.694;2023-09-18T05:45:14;100071.84;;;19.38;85.82
33845;BME280;20145;43.118;25.694;2023-09-18T05:47:40;100069.22;;;19.38;86.15
33845;BME280;20145;43.118;25.694;2023-09-18T05:50:11;100073.59;;;19.38;84.88
33845;BME280;20145;43.118;25.694;2023-09-18T05:52:42;100079.22;;;19.51;85.15
33845;BME280;20145;43.118;25.694;2023-09-18T05:55:08;100079.97;;;19.54;85.14
33845;BME280;20145;43.118;25.694;2023-09-18T05:57:34;100084.44;;;19.51;85.65
33845;BME280;20145;43.118;25.694;2023-09-18T06:00:00;100081.78;;;19.52;85.52
33845;BME280;20145;43.118;25.694;2023-09-18T06:02:25;100075.19;;;19.42;84.79
33845;BME280;20145;43.118;25.694;2023-09-18T06:05:00;100092.78;;;19.38;85.48
33845;BME280;20145;43.118;25.694;2023-09-18T06:07:27;100076.63;;;19.27;84.75
33845;BME280;20145;43.118;25.694;2023-09-18T06:09:53;100086.44;;;19.44;85.07
33845;BME280;20145;43.118;25.694;2023-09-18T06:12:19;100088.72;;;19.53;85.47
33845;BME280;20145;43.118;25.694;2023-09-18T06:14:44;100093.47;;;19.44;85.14
33845;BME280;20145;43.118;25.694;2023-09-18T06:17:12;100097.03;;;19.41;85.40
33845;BME280;20145;43.118;25.694;2023-09-18T06:19:37;100081.34;;;19.41;84.98
33845;BME280;20145;43.118;25.694;2023-09-18T06:22:04;100089.59;;;19.54;85.52
33845;BME280;20145;43.118;25.694;2023-09-18T06:24:29;100085.69;;;19.66;84.91
33845;BME280;20145;43.118;25.694;2023-09-18T06:26:55;100089.56;;;19.77;85.61
33845;BME280;20145;43.118;25.694;2023-09-18T06:29:21;100086.53;;;19.88;84.93
33845;BME280;20145;43.118;25.694;2023-09-18T06:31:46;100082.53;;;19.79;83.86
33845;BME280;20145;43.118;25.694;2023-09-18T06:34:12;100096.91;;;19.91;83.34
33845;BME280;20145;43.118;25.694;2023-09-18T06:36:37;100100.59;;;19.86;83.17
33845;BME280;20145;43.118;25.694;2023-09-18T06:39:03;100104.16;;;19.85;83.46
33845;BME280;20145;43.118;25.694;2023-09-18T06:41:29;100110.72;;;19.95;83.13
33845;BME280;20145;43.118;25.694;2023-09-18T06:43:54;100109.19;;;20.11;82.75
33845;BME280;20145;43.118;25.694;2023-09-18T06:46:20;100117.25;;;20.28;83.86
33845;BME280;20145;43.118;25.694;2023-09-18T06:48:45;100111.66;;;20.36;83.40
33845;BME280;20145;43.118;25.694;2023-09-18T06:51:15;100106.91;;;20.46;82.57
33845;BME280;20145;43.118;25.694;2023-09-18T06:53:41;100105.53;;;20.59;82.57
33845;BME280;20145;43.118;25.694;2023-09-18T06:56:06;100096.06;;;20.76;81.94
33845;BME280;20145;43.118;25.694;2023-09-18T06:58:32;100089.59;;;20.84;81.85
33845;BME280;20145;43.118;25.694;2023-09-18T07:00:57;100103.75;;;21.01;81.77
33845;BME280;20145;43.118;25.694;2023-09-18T07:03:23;100080.84;;;21.04;80.60
33845;BME280;20145;43.118;25.694;2023-09-18T07:05:49;100087.50;;;21.11;80.02
33845;BME280;20145;43.118;25.694;2023-09-18T07:08:14;100091.19;;;21.07;79.37
33845;BME280;20145;43.118;25.694;2023-09-18T07:10:44;100098.97;;;21.09;78.24
33845;BME280;20145;43.118;25.694;2023-09-18T07:13:10;100096.81;;;21.19;79.30
33845;BME280;20145;43.118;25.694;2023-09-18T07:15:37;100104.22;;;21.29;79.61
33845;BME280;20145;43.118;25.694;2023-09-18T07:18:03;100090.44;;;21.24;76.39
33845;BME280;20145;43.118;25.694;2023-09-18T07:20:29;100095.03;;;21.40;78.64
33845;BME280;20145;43.118;25.694;2023-09-18T07:22:55;100093.75;;;21.48;77.02
33845;BME280;20145;43.118;25.694;2023-09-18T07:25:21;100097.88;;;21.54;75.73
33845;BME280;20145;43.118;25.694;2023-09-18T07:27:47;100099.34;;;21.41;74.19
33845;BME280;20145;43.118;25.694;2023-09-18T07:30:14;100095.66;;;21.45;75.38
33845;BME280;20145;43.118;25.694;2023-09-18T07:32:45;100090.16;;;21.51;73.97
33845;BME280;20145;43.118;25.694;2023-09-18T07:35:11;100089.91;;;21.55;75.05
33845;BME280;20145;43.118;25.694;2023-09-18T07:37:38;100083.16;;;21.69;74.87
33845;BME280;20145;43.118;25.694;2023-09-18T07:40:05;100092.25;;;21.80;72.75
33845;BME280;20145;43.118;25.694;2023-09-18T07:42:31;100087.47;;;21.89;72.26
33845;BME280;20145;43.118;25.694;2023-09-18T07:44:57;100086.25;;;21.96;71.76
33845;BME280;20145;43.118;25.694;2023-09-18T07:47:23;100083.34;;;21.83;70.97
33845;BME280;20145;43.118;25.694;2023-09-18T07:49:48;100090.59;;;21.78;70.82
33845;BME280;20145;43.118;25.694;2023-09-18T07:52:14;100095.94;;;21.76;70.52
33845;BME280;20145;43.118;25.694;2023-09-18T07:54:40;100088.13;;;21.75;69.69
33845;BME280;20145;43.118;25.694;2023-09-18T07:57:06;100098.22;;;21.84;69.89
33845;BME280;20145;43.118;25.694;2023-09-18T07:59:35;100096.63;;;21.99;69.66
33845;BME280;20145;43.118;25.694;2023-09-18T08:02:02;100092.91;;;22.03;67.25
33845;BME280;20145;43.118;25.694;2023-09-18T08:04:27;100098.72;;;22.10;66.95
33845;BME280;20145;43.118;25.694;2023-09-18T08:06:53;100081.63;;;22.20;66.80
33845;BME280;20145;43.118;25.694;2023-09-18T08:09:18;100103.97;;;22.29;63.71
33845;BME280;20145;43.118;25.694;2023-09-18T08:11:44;100095.63;;;22.38;63.06
33845;BME280;20145;43.118;25.694;2023-09-18T08:14:09;100095.63;;;22.38;60.66
33845;BME280;20145;43.118;25.694;2023-09-18T08:16:37;100089.22;;;22.43;60.97
33845;BME280;20145;43.118;25.694;2023-09-18T08:19:02;100092.09;;;22.56;61.02
33845;BME280;20145;43.118;25.694;2023-09-18T08:21:28;100093.84;;;22.73;62.44
33845;BME280;20145;43.118;25.694;2023-09-18T08:23:57;100093.22;;;22.85;63.41
33845;BME280;20145;43.118;25.694;2023-09-18T08:26:22;100093.31;;;23.01;61.38
33845;BME280;20145;43.118;25.694;2023-09-18T08:28:48;100089.00;;;23.16;61.09
33845;BME280;20145;43.118;25.694;2023-09-18T08:31:14;100088.66;;;23.06;58.40
33845;BME280;20145;43.118;25.694;2023-09-18T08:33:42;100082.78;;;23.01;58.65
33845;BME280;20145;43.118;25.694;2023-09-18T08:36:08;100071.63;;;22.96;58.35
33845;BME280;20145;43.118;25.694;2023-09-18T08:38:33;100082.00;;;22.99;58.80
33845;BME280;20145;43.118;25.694;2023-09-18T08:40:59;100079.28;;;23.01;58.81
33845;BME280;20145;43.118;25.694;2023-09-18T08:43:24;100066.66;;;23.07;59.43
33845;BME280;20145;43.118;25.694;2023-09-18T08:45:52;100073.19;;;23.00;58.79
33845;BME280;20145;43.118;25.694;2023-09-18T08:48:20;100070.72;;;23.13;59.22
33845;BME280;20145;43.118;25.694;2023-09-18T08:50:47;100064.53;;;23.14;59.36
33845;BME280;20145;43.118;25.694;2023-09-18T08:53:13;100056.03;;;22.91;58.33
33845;BME280;20145;43.118;25.694;2023-09-18T08:55:38;100057.47;;;22.99;59.50
33845;BME280;20145;43.118;25.694;2023-09-18T08:58:07;100064.97;;;23.06;58.54
33845;BME280;20145;43.118;25.694;2023-09-18T09:00:36;100055.09;;;23.10;58.23
33845;BME280;20145;43.118;25.694;2023-09-18T09:03:03;100053.59;;;23.22;58.12
33845;BME280;20145;43.118;25.694;2023-09-18T09:05:30;100045.78;;;23.36;58.39
33845;BME280;20145;43.118;25.694;2023-09-18T09:07:57;100054.72;;;23.65;59.09
33845;BME280;20145;43.118;25.694;2023-09-18T09:10:22;100047.16;;;23.59;57.41
33845;BME280;20145;43.118;25.694;2023-09-18T09:12:49;100062.63;;;23.49;56.33
33845;BME280;20145;43.118;25.694;2023-09-18T09:15:15;100062.19;;;23.41;56.75
33845;BME280;20145;43.118;25.694;2023-09-18T09:17:42;100049.38;;;23.35;57.60
33845;BME280;20145;43.118;25.694;2023-09-18T09:20:13;100045.97;;;23.65;58.31
33845;BME280;20145;43.118;25.694;2023-09-18T09:22:40;100036.22;;;23.67;56.49
33845;BME280;20145;43.118;25.694;2023-09-18T09:27:52;100026.59;;;23.66;56.39
33845;BME280;20145;43.118;25.694;2023-09-18T09:30:20;100044.16;;;23.97;56.04
33845;BME280;20145;43.118;25.694;2023-09-18T09:32:51;100041.66;;;24.25;56.88
33845;BME280;20145;43.118;25.694;2023-09-18T09:37:47;100031.88;;;25.01;55.63
33845;BME280;20145;43.118;25.694;2023-09-18T09:40:13;100034.03;;;25.08;54.42
33845;BME280;20145;43.118;25.694;2023-09-18T09:42:40;100030.25;;;25.12;51.63
33845;BME280;20145;43.118;25.694;2023-09-18T09:45:14;100032.06;;;24.83;50.18
33845;BME280;20145;43.118;25.694;2023-09-18T09:47:43;100042.94;;;24.48;51.83
33845;BME280;20145;43.118;25.694;2023-09-18T09:50:15;100017.41;;;24.49;52.81
33845;BME280;20145;43.118;25.694;2023-09-18T09:52:49;100033.22;;;24.19;52.29
33845;BME280;20145;43.118;25.694;2023-09-18T09:55:22;100025.19;;;24.06;52.75
33845;BME280;20145;43.118;25.694;2023-09-18T09:57:51;100006.41;;;23.96;52.27
33845;BME280;20145;43.118;25.694;2023-09-18T10:00:17;100020.44;;;24.27;53.48
33845;BME280;20145;43.118;25.694;2023-09-18T10:03:01;100026.53;;;24.43;52.25
33845;BME280;20145;43.118;25.694;2023-09-18T10:05:30;100022.44;;;24.38;52.20
33845;BME280;20145;43.118;25.694;2023-09-18T10:07:58;100022.78;;;24.17;49.22
33845;BME280;20145;43.118;25.694;2023-09-18T10:10:29;100021.22;;;24.29;48.57
33845;BME280;20145;43.118;25.694;2023-09-18T10:13:00;100023.59;;;24.34;49.05
33845;BME280;20145;43.118;25.694;2023-09-18T10:15:28;100014.47;;;24.39;49.16
33845;BME280;20145;43.118;25.694;2023-09-18T10:17:57;100013.03;;;24.34;47.73
33845;BME280;20145;43.118;25.694;2023-09-18T10:20:26;100022.03;;;24.30;48.38
33845;BME280;20145;43.118;25.694;2023-09-18T10:22:56;100009.59;;;24.17;48.79
33845;BME280;20145;43.118;25.694;2023-09-18T10:25:29;99988.91;;;24.25;50.01
33845;BME280;20145;43.118;25.694;2023-09-18T10:27:56;100004.28;;;24.33;48.74
33845;BME280;20145;43.118;25.694;2023-09-18T10:30:29;99994.50;;;24.49;49.57
33845;BME280;20145;43.118;25.694;2023-09-18T10:32:56;99978.78;;;24.48;47.41
33845;BME280;20145;43.118;25.694;2023-09-18T10:35:24;100001.69;;;24.76;48.01
33845;BME280;20145;43.118;25.694;2023-09-18T10:37:51;99986.16;;;24.86;48.85
33845;BME280;20145;43.118;25.694;2023-09-18T10:40:20;100001.03;;;24.87;46.98
33845;BME280;20145;43.118;25.694;2023-09-18T10:42:48;99988.09;;;24.97;47.04
33845;BME280;20145;43.118;25.694;2023-09-18T10:45:14;99979.91;;;25.01;46.34
33845;BME280;20145;43.118;25.694;2023-09-18T10:47:45;99980.66;;;25.18;48.15
33845;BME280;20145;43.118;25.694;2023-09-18T10:50:22;99962.38;;;25.14;47.65
33845;BME280;20145;43.118;25.694;2023-09-18T10:52:49;99941.69;;;25.21;48.24
33845;BME280;20145;43.118;25.694;2023-09-18T10:55:14;99956.72;;;24.92;47.01
33845;BME280;20145;43.118;25.694;2023-09-18T10:57:54;99982.53;;;25.01;48.29
33845;BME280;20145;43.118;25.694;2023-09-18T11:00:21;99988.50;;;24.90;48.21
33845;BME280;20145;43.118;25.694;2023-09-18T11:03:09;99986.81;;;24.75;47.59
33845;BME280;20145;43.118;25.694;2023-09-18T11:05:35;99976.72;;;24.67;46.79
33845;BME280;20145;43.118;25.694;2023-09-18T11:08:43;99979.09;;;24.72;47.59
33845;BME280;20145;43.118;25.694;2023-09-18T11:11:10;99968.22;;;24.62;47.87
33845;BME280;20145;43.118;25.694;2023-09-18T11:21:29;99962.19;;;24.89;47.34
33845;BME280;20145;43.118;25.694;2023-09-18T11:24:02;99967.28;;;24.92;47.55
33845;BME280;20145;43.118;25.694;2023-09-18T11:26:36;99954.56;;;24.84;47.35
33845;BME280;20145;43.118;25.694;2023-09-18T11:29:05;99966.91;;;24.84;47.73
33845;BME280;20145;43.118;25.694;2023-09-18T11:31:51;99955.50;;;24.83;47.19
33845;BME280;20145;43.118;25.694;2023-09-18T11:34:27;99949.34;;;24.83;46.73
33845;BME280;20145;43.118;25.694;2023-09-18T11:37:20;99952.94;;;24.96;47.07
33845;BME280;20145;43.118;25.694;2023-09-18T11:39:46;99949.16;;;25.00;45.52
33845;BME280;20145;43.118;25.694;2023-09-18T11:42:17;99941.59;;;25.08;46.40
33845;BME280;20145;43.118;25.694;2023-09-18T11:44:44;99933.88;;;25.05;45.63
33845;BME280;20145;43.118;25.694;2023-09-18T11:47:14;99932.81;;;25.08;44.60
33845;BME280;20145;43.118;25.694;2023-09-18T11:49:55;99938.66;;;25.27;46.15
33845;BME280;20145;43.118;25.694;2023-09-18T11:52:28;99941.00;;;25.32;46.22
33845;BME280;20145;43.118;25.694;2023-09-18T11:54:58;99940.03;;;25.33;45.33
33845;BME280;20145;43.118;25.694;2023-09-18T11:57:24;99929.19;;;25.37;45.80
33845;BME280;20145;43.118;25.694;2023-09-18T11:59:50;99929.13;;;25.52;44.96
33845;BME280;20145;43.118;25.694;2023-09-18T12:02:29;99920.75;;;25.45;44.92
33845;BME280;20145;43.118;25.694;2023-09-18T12:05:11;99913.78;;;25.44;44.99
33845;BME280;20145;43.118;25.694;2023-09-18T12:07:40;99926.28;;;25.55;45.35
33845;BME280;20145;43.118;25.694;2023-09-18T12:10:10;99921.38;;;25.76;47.00
33845;BME280;20145;43.118;25.694;2023-09-18T12:12:36;99917.28;;;25.85;46.66
33845;BME280;20145;43.118;25.694;2023-09-18T12:15:02;99914.00;;;25.94;44.34
33845;BME280;20145;43.118;25.694;2023-09-18T12:17:28;99897.31;;;25.93;45.28
33845;BME280;20145;43.118;25.694;2023-09-18T12:19:54;99916.03;;;26.16;45.65
33845;BME280;20145;43.118;25.694;2023-09-18T12:22:27;99921.84;;;26.46;44.65
33845;BME280;20145;43.118;25.694;2023-09-18T12:24:57;99907.44;;;26.76;44.44
33845;BME280;20145;43.118;25.694;2023-09-18T12:27:35;99900.69;;;26.72;43.05
33845;BME280;20145;43.118;25.694;2023-09-18T12:30:02;99900.56;;;26.74;42.53
33845;BME280;20145;43.118;25.694;2023-09-18T12:32:30;99903.88;;;26.52;43.75
33845;BME280;20145;43.118;25.694;2023-09-18T12:34:56;99901.78;;;26.44;45.19
33845;BME280;20145;43.118;25.694;2023-09-18T12:37:21;99893.94;;;26.17;42.90
33845;BME280;20145;43.118;25.694;2023-09-18T12:39:48;99890.66;;;26.00;45.20
33845;BME280;20145;43.118;25.694;2023-09-18T12:42:19;99886.94;;;25.90;46.69
33845;BME280;20145;43.118;25.694;2023-09-18T12:44:47;99898.16;;;25.94;45.92
33845;BME280;20145;43.118;25.694;2023-09-18T12:47:13;99884.38;;;25.76;44.81
33845;BME280;20145;43.118;25.694;2023-09-18T12:49:38;99894.34;;;25.98;46.53
33845;BME280;20145;43.118;25.694;2023-09-18T12:52:05;99891.81;;;26.09;43.67
33845;BME280;20145;43.118;25.694;2023-09-18T12:54:44;99893.31;;;26.26;43.18
33845;BME280;20145;43.118;25.694;2023-09-18T12:57:15;99884.75;;;26.22;44.50
33845;BME280;20145;43.118;25.694;2023-09-18T12:59:41;99863.78;;;26.07;43.66
33845;BME280;20145;43.118;25.694;2023-09-18T13:02:07;99887.16;;;26.25;44.68
33845;BME280;20145;43.118;25.694;2023-09-18T13:04:36;99882.50;;;26.03;44.75